sensor_id;sensor_type;location;lat;lon;timestamp;P1;durP1;ratioP1;P2;durP2;ratioP2
38549;SDS011;24322;52.004;5.948;2022-09-12T00:01:06;19.20;;;11.53;;
38549;SDS011;24322;52.004;5.948;2022-09-12T00:03:39;19.23;;;10.67;;
38549;SDS011;24322;52.004;5.948;2022-09-12T00:06:06;22.87;;;12.20;;
38549;SDS011;24322;52.004;5.948;2022-09-12T00:08:34;20.10;;;12.60;;
38549;SDS011;24322;52.004;5.948;2022-09-12T00:11:03;20.57;;;11.93;;
38549;SDS011;24322;52.004;5.948;2022-09-12T00:13:31;19.23;;;11.57;;
38549;SDS011;24322;52.004;5.948;2022-09-12T00:15:56;17.23;;;10.57;;
38549;SDS011;24322;52.004;5.948;2022-09-12T00:18:22;22.53;;;12.83;;
38549;SDS011;24322;52.004;5.948;2022-09-12T00:20:48;20.87;;;12.60;;
38549;SDS011;24322;52.004;5.948;2022-09-12T00:23:14;24.90;;;12.60;;
38549;SDS011;24322;52.004;5.948;2022-09-12T00:25:46;18.60;;;11.07;;
38549;SDS011;24322;52.004;5.948;2022-09-12T00:28:13;16.03;;;11.03;;
38549;SDS011;24322;52.004;5.948;2022-09-12T00:30:45;19.23;;;11.50;;
38549;SDS011;24322;52.004;5.948;2022-09-12T00:33:12;24.00;;;14.90;;
38549;SDS011;24322;52.004;5.948;2022-09-12T00:35:46;20.97;;;13.73;;
38549;SDS011;24322;52.004;5.948;2022-09-12T00:38:13;24.30;;;13.67;;
38549;SDS011;24322;52.004;5.948;2022-09-12T00:40:40;20.93;;;11.77;;
38549;SDS011;24322;52.004;5.948;2022-09-12T00:46:05;23.57;;;12.90;;
38549;SDS011;24322;52.004;5.948;2022-09-12T00:48:41;20.80;;;12.90;;
38549;SDS011;24322;52.004;5.948;2022-09-12T00:51:11;21.07;;;12.73;;
38549;SDS011;24322;52.004;5.948;2022-09-12T00:53:39;20.90;;;11.60;;
38549;SDS011;24322;52.004;5.948;2022-09-12T00:56:07;19.73;;;12.57;;
38549;SDS011;24322;52.004;5.948;2022-09-12T00:58:39;20.60;;;12.77;;
38549;SDS011;24322;52.004;5.948;2022-09-12T01:01:15;22.27;;;13.60;;
38549;SDS011;24322;52.004;5.948;2022-09-12T01:03:41;24.53;;;15.23;;
38549;SDS011;24322;52.004;5.948;2022-09-12T01:08:42;20.37;;;12.73;;
38549;SDS011;24322;52.004;5.948;2022-09-12T01:11:08;22.07;;;13.40;;
38549;SDS011;24322;52.004;5.948;2022-09-12T01:13:35;22.07;;;13.63;;
38549;SDS011;24322;52.004;5.948;2022-09-12T01:16:02;24.80;;;14.00;;
38549;SDS011;24322;52.004;5.948;2022-09-12T01:21:14;23.57;;;14.10;;
38549;SDS011;24322;52.004;5.948;2022-09-12T01:27:12;24.47;;;14.10;;
38549;SDS011;24322;52.004;5.948;2022-09-12T01:33:12;27.13;;;15.80;;
38549;SDS011;24322;52.004;5.948;2022-09-12T01:39:02;28.83;;;16.90;;
38549;SDS011;24322;52.004;5.948;2022-09-12T01:41:23;23.13;;;14.00;;
38549;SDS011;24322;52.004;5.948;2022-09-12T01:44:03;25.27;;;14.37;;
38549;SDS011;24322;52.004;5.948;2022-09-12T01:47:09;24.70;;;15.07;;
38549;SDS011;24322;52.004;5.948;2022-09-12T01:49:43;25.53;;;15.23;;
38549;SDS011;24322;52.004;5.948;2022-09-12T01:52:16;27.17;;;16.40;;
38549;SDS011;24322;52.004;5.948;2022-09-12T01:54:49;29.07;;;14.80;;
38549;SDS011;24322;52.004;5.948;2022-09-12T01:57:34;28.27;;;17.20;;
38549;SDS011;24322;52.004;5.948;2022-09-12T02:00:08;26.93;;;15.53;;
38549;SDS011;24322;52.004;5.948;2022-09-12T02:02:37;25.33;;;15.63;;
38549;SDS011;24322;52.004;5.948;2022-09-12T02:05:17;24.20;;;14.53;;
38549;SDS011;24322;52.004;5.948;2022-09-12T02:10:39;22.57;;;13.67;;
38549;SDS011;24322;52.004;5.948;2022-09-12T02:15:40;32.40;;;17.40;;
38549;SDS011;24322;52.004;5.948;2022-09-12T02:18:12;33.25;;;17.73;;
38549;SDS011;24322;52.004;5.948;2022-09-12T02:20:42;26.27;;;15.57;;
38549;SDS011;24322;52.004;5.948;2022-09-12T02:23:10;26.00;;;15.20;;
38549;SDS011;24322;52.004;5.948;2022-09-12T02:25:39;25.47;;;14.50;;
38549;SDS011;24322;52.004;5.948;2022-09-12T02:28:13;30.93;;;17.63;;
38549;SDS011;24322;52.004;5.948;2022-09-12T02:30:44;29.17;;;16.83;;
38549;SDS011;24322;52.004;5.948;2022-09-12T02:33:43;29.30;;;16.23;;
38549;SDS011;24322;52.004;5.948;2022-09-12T02:38:47;30.70;;;17.03;;
38549;SDS011;24322;52.004;5.948;2022-09-12T02:41:13;31.17;;;17.77;;
38549;SDS011;24322;52.004;5.948;2022-09-12T02:43:43;30.00;;;17.40;;
38549;SDS011;24322;52.004;5.948;2022-09-12T02:46:12;29.83;;;17.00;;
38549;SDS011;24322;52.004;5.948;2022-09-12T02:48:50;37.13;;;21.10;;
38549;SDS011;24322;52.004;5.948;2022-09-12T02:51:17;30.27;;;18.10;;
38549;SDS011;24322;52.004;5.948;2022-09-12T02:53:43;35.03;;;18.40;;
38549;SDS011;24322;52.004;5.948;2022-09-12T02:56:10;31.80;;;18.07;;
38549;SDS011;24322;52.004;5.948;2022-09-12T02:58:41;29.60;;;17.25;;
38549;SDS011;24322;52.004;5.948;2022-09-12T03:01:23;27.50;;;15.70;;
38549;SDS011;24322;52.004;5.948;2022-09-12T03:23:02;26.70;;;16.03;;
38549;SDS011;24322;52.004;5.948;2022-09-12T03:25:34;28.50;;;16.03;;
38549;SDS011;24322;52.004;5.948;2022-09-12T03:28:08;32.40;;;19.07;;
38549;SDS011;24322;52.004;5.948;2022-09-12T03:30:38;27.40;;;16.67;;
38549;SDS011;24322;52.004;5.948;2022-09-12T03:33:09;28.57;;;16.00;;
38549;SDS011;24322;52.004;5.948;2022-09-12T03:35:36;27.87;;;15.87;;
38549;SDS011;24322;52.004;5.948;2022-09-12T03:38:01;33.67;;;18.23;;
38549;SDS011;24322;52.004;5.948;2022-09-12T03:40:27;29.20;;;16.10;;
38549;SDS011;24322;52.004;5.948;2022-09-12T03:42:53;32.83;;;16.90;;
38549;SDS011;24322;52.004;5.948;2022-09-12T03:45:18;29.40;;;16.70;;
38549;SDS011;24322;52.004;5.948;2022-09-12T03:47:44;32.50;;;18.70;;
38549;SDS011;24322;52.004;5.948;2022-09-12T03:50:09;33.70;;;18.07;;
38549;SDS011;24322;52.004;5.948;2022-09-12T03:52:35;38.50;;;20.53;;
38549;SDS011;24322;52.004;5.948;2022-09-12T03:55:01;34.17;;;18.10;;
38549;SDS011;24322;52.004;5.948;2022-09-12T03:57:26;32.07;;;17.17;;
38549;SDS011;24322;52.004;5.948;2022-09-12T03:59:52;30.37;;;16.47;;
38549;SDS011;24322;52.004;5.948;2022-09-12T04:02:18;36.90;;;20.17;;
38549;SDS011;24322;52.004;5.948;2022-09-12T04:04:44;31.07;;;17.97;;
38549;SDS011;24322;52.004;5.948;2022-09-12T04:07:12;32.77;;;18.17;;
38549;SDS011;24322;52.004;5.948;2022-09-12T04:09:39;35.67;;;20.87;;
38549;SDS011;24322;52.004;5.948;2022-09-12T04:12:05;35.43;;;19.10;;
38549;SDS011;24322;52.004;5.948;2022-09-12T04:14:31;33.33;;;18.47;;
38549;SDS011;24322;52.004;5.948;2022-09-12T04:16:57;35.40;;;18.83;;
38549;SDS011;24322;52.004;5.948;2022-09-12T04:19:24;38.93;;;20.67;;
38549;SDS011;24322;52.004;5.948;2022-09-12T04:21:50;31.93;;;18.07;;
38549;SDS011;24322;52.004;5.948;2022-09-12T04:24:16;33.10;;;19.03;;
38549;SDS011;24322;52.004;5.948;2022-09-12T04:26:41;34.43;;;21.07;;
38549;SDS011;24322;52.004;5.948;2022-09-12T04:29:08;36.03;;;18.93;;
38549;SDS011;24322;52.004;5.948;2022-09-12T04:31:39;32.23;;;19.30;;
38549;SDS011;24322;52.004;5.948;2022-09-12T04:34:05;35.90;;;20.17;;
38549;SDS011;24322;52.004;5.948;2022-09-12T04:36:31;37.10;;;20.77;;
38549;SDS011;24322;52.004;5.948;2022-09-12T04:38:58;37.40;;;20.50;;
38549;SDS011;24322;52.004;5.948;2022-09-12T04:41:26;36.67;;;19.27;;
38549;SDS011;24322;52.004;5.948;2022-09-12T04:43:55;30.57;;;17.77;;
38549;SDS011;24322;52.004;5.948;2022-09-12T04:46:29;37.13;;;20.13;;
38549;SDS011;24322;52.004;5.948;2022-09-12T04:48:56;35.73;;;19.07;;
38549;SDS011;24322;52.004;5.948;2022-09-12T04:51:23;34.73;;;19.07;;
38549;SDS011;24322;52.004;5.948;2022-09-12T04:53:53;34.77;;;19.30;;
38549;SDS011;24322;52.004;5.948;2022-09-12T04:56:20;34.10;;;18.17;;
38549;SDS011;24322;52.004;5.948;2022-09-12T04:58:47;38.00;;;20.17;;
38549;SDS011;24322;52.004;5.948;2022-09-12T05:01:14;37.80;;;19.03;;
38549;SDS011;24322;52.004;5.948;2022-09-12T05:03:45;36.67;;;19.87;;
38549;SDS011;24322;52.004;5.948;2022-09-12T05:06:22;40.63;;;21.97;;
38549;SDS011;24322;52.004;5.948;2022-09-12T05:08:50;35.30;;;19.67;;
38549;SDS011;24322;52.004;5.948;2022-09-12T05:11:18;35.43;;;19.53;;
38549;SDS011;24322;52.004;5.948;2022-09-12T05:13:46;36.87;;;20.83;;
38549;SDS011;24322;52.004;5.948;2022-09-12T05:16:13;32.80;;;18.47;;
38549;SDS011;24322;52.004;5.948;2022-09-12T05:18:40;36.50;;;19.83;;
38549;SDS011;24322;52.004;5.948;2022-09-12T05:21:08;37.87;;;19.90;;
38549;SDS011;24322;52.004;5.948;2022-09-12T05:23:35;34.53;;;18.53;;
38549;SDS011;24322;52.004;5.948;2022-09-12T05:26:01;40.00;;;21.07;;
38549;SDS011;24322;52.004;5.948;2022-09-12T05:28:29;37.03;;;19.30;;
38549;SDS011;24322;52.004;5.948;2022-09-12T05:33:48;44.70;;;21.37;;
38549;SDS011;24322;52.004;5.948;2022-09-12T05:36:16;37.10;;;20.17;;
38549;SDS011;24322;52.004;5.948;2022-09-12T05:38:46;42.13;;;22.23;;
38549;SDS011;24322;52.004;5.948;2022-09-12T05:41:13;43.90;;;22.53;;
38549;SDS011;24322;52.004;5.948;2022-09-12T05:43:53;38.10;;;22.53;;
38549;SDS011;24322;52.004;5.948;2022-09-12T05:46:20;40.30;;;20.23;;
38549;SDS011;24322;52.004;5.948;2022-09-12T05:48:48;34.27;;;19.60;;
38549;SDS011;24322;52.004;5.948;2022-09-12T05:51:16;35.80;;;19.20;;
38549;SDS011;24322;52.004;5.948;2022-09-12T05:53:45;35.37;;;18.73;;
38549;SDS011;24322;52.004;5.948;2022-09-12T05:56:17;42.07;;;22.17;;
38549;SDS011;24322;52.004;5.948;2022-09-12T05:58:47;38.07;;;19.63;;
38549;SDS011;24322;52.004;5.948;2022-09-12T06:01:18;43.47;;;21.80;;
38549;SDS011;24322;52.004;5.948;2022-09-12T06:03:45;40.03;;;21.07;;
38549;SDS011;24322;52.004;5.948;2022-09-12T06:06:12;39.80;;;22.03;;
38549;SDS011;24322;52.004;5.948;2022-09-12T06:08:40;41.33;;;21.37;;
38549;SDS011;24322;52.004;5.948;2022-09-12T06:11:07;35.90;;;19.53;;
38549;SDS011;24322;52.004;5.948;2022-09-12T06:13:36;38.13;;;21.27;;
38549;SDS011;24322;52.004;5.948;2022-09-12T06:18:40;37.40;;;19.43;;
38549;SDS011;24322;52.004;5.948;2022-09-12T06:21:07;40.87;;;22.23;;
38549;SDS011;24322;52.004;5.948;2022-09-12T06:23:35;42.90;;;20.87;;
38549;SDS011;24322;52.004;5.948;2022-09-12T06:26:02;36.73;;;19.77;;
38549;SDS011;24322;52.004;5.948;2022-09-12T06:28:28;38.80;;;20.17;;
38549;SDS011;24322;52.004;5.948;2022-09-12T06:31:02;35.77;;;20.03;;
38549;SDS011;24322;52.004;5.948;2022-09-12T06:33:29;38.97;;;19.57;;
38549;SDS011;24322;52.004;5.948;2022-09-12T06:36:01;37.55;;;18.80;;
38549;SDS011;24322;52.004;5.948;2022-09-12T06:38:28;39.67;;;22.40;;
38549;SDS011;24322;52.004;5.948;2022-09-12T06:40:54;40.97;;;21.73;;
38549;SDS011;24322;52.004;5.948;2022-09-12T06:43:21;43.60;;;21.98;;
38549;SDS011;24322;52.004;5.948;2022-09-12T06:45:47;48.90;;;23.15;;
38549;SDS011;24322;52.004;5.948;2022-09-12T06:48:13;45.58;;;24.27;;
38549;SDS011;24322;52.004;5.948;2022-09-12T06:50:39;40.67;;;22.23;;
38549;SDS011;24322;52.004;5.948;2022-09-12T06:53:04;43.08;;;21.98;;
38549;SDS011;24322;52.004;5.948;2022-09-12T06:55:30;44.22;;;23.40;;
38549;SDS011;24322;52.004;5.948;2022-09-12T06:57:55;39.45;;;23.15;;
38549;SDS011;24322;52.004;5.948;2022-09-12T07:00:22;40.80;;;21.45;;
38549;SDS011;24322;52.004;5.948;2022-09-12T07:02:47;44.40;;;22.92;;
38549;SDS011;24322;52.004;5.948;2022-09-12T07:05:13;45.13;;;22.67;;
38549;SDS011;24322;52.004;5.948;2022-09-12T07:07:39;40.22;;;21.00;;
38549;SDS011;24322;52.004;5.948;2022-09-12T07:10:04;48.35;;;23.58;;
38549;SDS011;24322;52.004;5.948;2022-09-12T07:12:30;44.40;;;23.60;;
38549;SDS011;24322;52.004;5.948;2022-09-12T07:14:56;55.13;;;25.70;;
38549;SDS011;24322;52.004;5.948;2022-09-12T07:17:22;51.60;;;25.40;;
38549;SDS011;24322;52.004;5.948;2022-09-12T07:19:47;58.63;;;29.17;;
38549;SDS011;24322;52.004;5.948;2022-09-12T07:22:13;56.35;;;28.83;;
38549;SDS011;24322;52.004;5.948;2022-09-12T07:24:38;50.72;;;26.63;;
38549;SDS011;24322;52.004;5.948;2022-09-12T07:27:05;49.95;;;27.42;;
38549;SDS011;24322;52.004;5.948;2022-09-12T07:29:30;54.80;;;27.55;;
38549;SDS011;24322;52.004;5.948;2022-09-12T07:31:56;59.28;;;30.80;;
38549;SDS011;24322;52.004;5.948;2022-09-12T07:34:22;53.17;;;28.92;;
38549;SDS011;24322;52.004;5.948;2022-09-12T07:36:47;55.50;;;28.05;;
38549;SDS011;24322;52.004;5.948;2022-09-12T07:39:13;57.67;;;31.17;;
38549;SDS011;24322;52.004;5.948;2022-09-12T07:41:39;62.80;;;31.33;;
38549;SDS011;24322;52.004;5.948;2022-09-12T07:44:04;58.67;;;31.80;;
38549;SDS011;24322;52.004;5.948;2022-09-12T07:46:31;54.17;;;30.27;;
38549;SDS011;24322;52.004;5.948;2022-09-12T07:48:57;51.78;;;26.50;;
38549;SDS011;24322;52.004;5.948;2022-09-12T07:51:24;64.60;;;31.20;;
38549;SDS011;24322;52.004;5.948;2022-09-12T07:53:52;60.78;;;30.73;;
38549;SDS011;24322;52.004;5.948;2022-09-12T07:56:18;64.88;;;34.55;;
38549;SDS011;24322;52.004;5.948;2022-09-12T07:58:44;62.10;;;32.65;;
38549;SDS011;24322;52.004;5.948;2022-09-12T08:01:11;56.50;;;31.27;;
38549;SDS011;24322;52.004;5.948;2022-09-12T08:03:40;56.83;;;31.27;;
38549;SDS011;24322;52.004;5.948;2022-09-12T08:06:09;49.97;;;26.83;;
38549;SDS011;24322;52.004;5.948;2022-09-12T08:08:38;44.58;;;26.70;;
38549;SDS011;24322;52.004;5.948;2022-09-12T08:11:05;45.72;;;27.73;;
38549;SDS011;24322;52.004;5.948;2022-09-12T08:13:33;53.05;;;30.63;;
38549;SDS011;24322;52.004;5.948;2022-09-12T08:16:00;45.25;;;27.33;;
38549;SDS011;24322;52.004;5.948;2022-09-12T08:18:28;45.70;;;25.08;;
38549;SDS011;24322;52.004;5.948;2022-09-12T08:21:00;46.03;;;24.38;;
38549;SDS011;24322;52.004;5.948;2022-09-12T08:23:28;43.92;;;26.35;;
38549;SDS011;24322;52.004;5.948;2022-09-12T08:25:55;43.25;;;24.40;;
38549;SDS011;24322;52.004;5.948;2022-09-12T08:28:31;37.80;;;21.83;;
38549;SDS011;24322;52.004;5.948;2022-09-12T08:31:05;39.38;;;23.38;;
38549;SDS011;24322;52.004;5.948;2022-09-12T08:33:32;42.25;;;23.92;;
38549;SDS011;24322;52.004;5.948;2022-09-12T08:36:05;39.55;;;22.92;;
38549;SDS011;24322;52.004;5.948;2022-09-12T08:38:45;35.20;;;21.45;;
38549;SDS011;24322;52.004;5.948;2022-09-12T08:49:31;29.92;;;18.83;;
38549;SDS011;24322;52.004;5.948;2022-09-12T08:52:12;33.55;;;20.42;;
38549;SDS011;24322;52.004;5.948;2022-09-12T08:54:41;25.40;;;16.42;;
38549;SDS011;24322;52.004;5.948;2022-09-12T08:57:09;28.92;;;16.05;;
38549;SDS011;24322;52.004;5.948;2022-09-12T08:59:36;34.90;;;20.23;;
38549;SDS011;24322;52.004;5.948;2022-09-12T09:05:16;21.48;;;13.25;;
38549;SDS011;24322;52.004;5.948;2022-09-12T09:10:30;23.33;;;15.57;;
38549;SDS011;24322;52.004;5.948;2022-09-12T09:18:56;22.10;;;14.15;;
38549;SDS011;24322;52.004;5.948;2022-09-12T09:22:07;22.13;;;15.32;;
38549;SDS011;24322;52.004;5.948;2022-09-12T09:24:20;20.77;;;12.30;;
38549;SDS011;24322;52.004;5.948;2022-09-12T09:26:52;21.48;;;13.55;;
38549;SDS011;24322;52.004;5.948;2022-09-12T09:29:44;23.58;;;15.48;;
38549;SDS011;24322;52.004;5.948;2022-09-12T09:32:17;19.75;;;11.65;;
38549;SDS011;24322;52.004;5.948;2022-09-12T09:34:49;17.55;;;11.63;;
38549;SDS011;24322;52.004;5.948;2022-09-12T09:37:20;22.27;;;14.50;;
38549;SDS011;24322;52.004;5.948;2022-09-12T09:40:23;18.45;;;10.77;;
38549;SDS011;24322;52.004;5.948;2022-09-12T09:45:44;18.55;;;12.32;;
38549;SDS011;24322;52.004;5.948;2022-09-12T09:48:23;21.77;;;13.52;;
38549;SDS011;24322;52.004;5.948;2022-09-12T09:50:56;20.85;;;12.70;;
38549;SDS011;24322;52.004;5.948;2022-09-12T09:55:55;19.13;;;12.82;;
38549;SDS011;24322;52.004;5.948;2022-09-12T09:58:33;23.00;;;12.73;;
38549;SDS011;24322;52.004;5.948;2022-09-12T10:01:00;18.02;;;11.40;;
38549;SDS011;24322;52.004;5.948;2022-09-12T10:03:31;17.63;;;9.45;;
38549;SDS011;24322;52.004;5.948;2022-09-12T10:06:24;14.90;;;9.48;;
38549;SDS011;24322;52.004;5.948;2022-09-12T10:09:17;16.13;;;10.93;;
38549;SDS011;24322;52.004;5.948;2022-09-12T10:12:39;15.85;;;8.02;;
38549;SDS011;24322;52.004;5.948;2022-09-12T10:14:59;15.25;;;9.27;;
38549;SDS011;24322;52.004;5.948;2022-09-12T10:19:55;19.48;;;11.90;;
38549;SDS011;24322;52.004;5.948;2022-09-12T10:22:25;16.55;;;10.73;;
38549;SDS011;24322;52.004;5.948;2022-09-12T10:24:54;16.35;;;9.20;;
38549;SDS011;24322;52.004;5.948;2022-09-12T10:27:23;15.30;;;8.60;;
38549;SDS011;24322;52.004;5.948;2022-09-12T10:30:06;13.40;;;6.90;;
38549;SDS011;24322;52.004;5.948;2022-09-12T10:32:44;12.38;;;7.53;;
38549;SDS011;24322;52.004;5.948;2022-09-12T10:35:22;17.50;;;8.90;;
38549;SDS011;24322;52.004;5.948;2022-09-12T10:40:26;11.77;;;6.30;;
38549;SDS011;24322;52.004;5.948;2022-09-12T10:42:55;7.75;;;4.43;;
38549;SDS011;24322;52.004;5.948;2022-09-12T10:45:32;10.32;;;5.43;;
38549;SDS011;24322;52.004;5.948;2022-09-12T10:48:00;11.50;;;5.43;;
38549;SDS011;24322;52.004;5.948;2022-09-12T10:50:45;10.73;;;5.65;;
38549;SDS011;24322;52.004;5.948;2022-09-12T10:53:17;9.10;;;4.25;;
38549;SDS011;24322;52.004;5.948;2022-09-12T11:01:01;8.95;;;3.78;;
38549;SDS011;24322;52.004;5.948;2022-09-12T11:06:12;8.55;;;4.40;;
38549;SDS011;24322;52.004;5.948;2022-09-12T11:08:54;8.40;;;3.60;;
38549;SDS011;24322;52.004;5.948;2022-09-12T11:22:31;5.77;;;3.17;;
38549;SDS011;24322;52.004;5.948;2022-09-12T11:25:39;5.88;;;3.33;;
38549;SDS011;24322;52.004;5.948;2022-09-12T11:30:51;7.05;;;3.35;;
38549;SDS011;24322;52.004;5.948;2022-09-12T11:36:49;5.53;;;2.90;;
38549;SDS011;24322;52.004;5.948;2022-09-12T11:39:31;6.55;;;3.35;;
38549;SDS011;24322;52.004;5.948;2022-09-12T11:42:03;5.65;;;3.10;;
38549;SDS011;24322;52.004;5.948;2022-09-12T11:44:35;5.45;;;2.65;;
38549;SDS011;24322;52.004;5.948;2022-09-12T11:47:06;7.88;;;3.75;;
38549;SDS011;24322;52.004;5.948;2022-09-12T11:49:40;5.43;;;3.60;;
38549;SDS011;24322;52.004;5.948;2022-09-12T11:52:18;4.75;;;3.50;;
38549;SDS011;24322;52.004;5.948;2022-09-12T12:02:25;9.50;;;4.38;;
38549;SDS011;24322;52.004;5.948;2022-09-12T12:05:15;6.68;;;3.50;;
38549;SDS011;24322;52.004;5.948;2022-09-12T12:07:41;5.47;;;3.38;;
38549;SDS011;24322;52.004;5.948;2022-09-12T12:10:20;6.15;;;3.50;;
38549;SDS011;24322;52.004;5.948;2022-09-12T12:12:48;7.57;;;3.45;;
38549;SDS011;24322;52.004;5.948;2022-09-12T12:15:15;8.07;;;4.30;;
38549;SDS011;24322;52.004;5.948;2022-09-12T12:17:42;7.30;;;3.20;;
38549;SDS011;24322;52.004;5.948;2022-09-12T12:20:12;4.47;;;3.20;;
38549;SDS011;24322;52.004;5.948;2022-09-12T12:22:51;6.28;;;3.55;;
38549;SDS011;24322;52.004;5.948;2022-09-12T12:33:03;4.50;;;3.00;;
38549;SDS011;24322;52.004;5.948;2022-09-12T12:37:59;5.85;;;3.40;;
38549;SDS011;24322;52.004;5.948;2022-09-12T12:40:27;3.65;;;2.42;;
38549;SDS011;24322;52.004;5.948;2022-09-12T12:43:00;6.28;;;3.60;;
38549;SDS011;24322;52.004;5.948;2022-09-12T12:47:54;8.48;;;4.70;;
38549;SDS011;24322;52.004;5.948;2022-09-12T12:50:25;6.43;;;4.38;;
38549;SDS011;24322;52.004;5.948;2022-09-12T12:55:25;8.60;;;4.28;;
38549;SDS011;24322;52.004;5.948;2022-09-12T12:57:58;5.28;;;3.13;;
38549;SDS011;24322;52.004;5.948;2022-09-12T13:00:29;6.88;;;3.97;;
38549;SDS011;24322;52.004;5.948;2022-09-12T13:05:37;9.63;;;4.97;;
38549;SDS011;24322;52.004;5.948;2022-09-12T13:08:08;5.40;;;2.90;;
38549;SDS011;24322;52.004;5.948;2022-09-12T13:10:35;3.90;;;2.88;;
38549;SDS011;24322;52.004;5.948;2022-09-12T13:13:03;7.00;;;3.38;;
38549;SDS011;24322;52.004;5.948;2022-09-12T13:18:11;6.47;;;2.00;;
38549;SDS011;24322;52.004;5.948;2022-09-12T13:20:51;3.83;;;2.30;;
38549;SDS011;24322;52.004;5.948;2022-09-12T13:23:22;5.18;;;2.95;;
38549;SDS011;24322;52.004;5.948;2022-09-12T13:25:59;5.82;;;2.95;;
38549;SDS011;24322;52.004;5.948;2022-09-12T13:28:26;5.82;;;2.92;;
38549;SDS011;24322;52.004;5.948;2022-09-12T13:41:38;5.55;;;3.15;;
38549;SDS011;24322;52.004;5.948;2022-09-12T13:44:27;5.10;;;2.67;;
38549;SDS011;24322;52.004;5.948;2022-09-12T13:46:53;5.07;;;3.03;;
38549;SDS011;24322;52.004;5.948;2022-09-12T13:49:35;6.50;;;2.90;;
38549;SDS011;24322;52.004;5.948;2022-09-12T13:52:03;7.10;;;2.75;;
38549;SDS011;24322;52.004;5.948;2022-09-12T13:54:31;6.60;;;3.33;;
38549;SDS011;24322;52.004;5.948;2022-09-12T13:56:59;5.57;;;3.20;;
38549;SDS011;24322;52.004;5.948;2022-09-12T13:59:24;9.15;;;3.97;;
38549;SDS011;24322;52.004;5.948;2022-09-12T14:01:50;5.75;;;2.88;;
38549;SDS011;24322;52.004;5.948;2022-09-12T14:04:22;5.25;;;2.85;;
38549;SDS011;24322;52.004;5.948;2022-09-12T14:07:20;5.22;;;2.92;;
38549;SDS011;24322;52.004;5.948;2022-09-12T14:09:57;5.85;;;3.00;;
38549;SDS011;24322;52.004;5.948;2022-09-12T14:12:25;5.30;;;2.78;;
38549;SDS011;24322;52.004;5.948;2022-09-12T14:14:56;4.97;;;2.95;;
38549;SDS011;24322;52.004;5.948;2022-09-12T14:17:23;6.25;;;3.45;;
38549;SDS011;24322;52.004;5.948;2022-09-12T14:20:21;5.28;;;2.97;;
38549;SDS011;24322;52.004;5.948;2022-09-12T14:22:47;4.95;;;2.78;;
38549;SDS011;24322;52.004;5.948;2022-09-12T14:25:15;5.93;;;2.50;;
38549;SDS011;24322;52.004;5.948;2022-09-12T14:27:45;3.03;;;2.08;;
38549;SDS011;24322;52.004;5.948;2022-09-12T14:33:01;8.27;;;3.15;;
38549;SDS011;24322;52.004;5.948;2022-09-12T14:35:33;4.38;;;2.40;;
38549;SDS011;24322;52.004;5.948;2022-09-12T14:40:45;7.97;;;2.70;;
38549;SDS011;24322;52.004;5.948;2022-09-12T14:43:20;5.10;;;2.75;;
38549;SDS011;24322;52.004;5.948;2022-09-12T14:46:01;6.90;;;2.47;;
38549;SDS011;24322;52.004;5.948;2022-09-12T14:48:33;4.00;;;2.38;;
38549;SDS011;24322;52.004;5.948;2022-09-12T14:51:01;4.90;;;2.47;;
38549;SDS011;24322;52.004;5.948;2022-09-12T14:53:32;3.47;;;2.10;;
38549;SDS011;24322;52.004;5.948;2022-09-12T14:56:10;3.30;;;2.40;;
38549;SDS011;24322;52.004;5.948;2022-09-12T14:58:37;5.38;;;2.95;;
38549;SDS011;24322;52.004;5.948;2022-09-12T15:06:00;5.40;;;2.97;;
38549;SDS011;24322;52.004;5.948;2022-09-12T15:08:27;5.07;;;2.45;;
38549;SDS011;24322;52.004;5.948;2022-09-12T15:10:54;4.00;;;2.58;;
38549;SDS011;24322;52.004;5.948;2022-09-12T15:13:20;5.63;;;3.30;;
38549;SDS011;24322;52.004;5.948;2022-09-12T15:15:51;3.72;;;2.13;;
38549;SDS011;24322;52.004;5.948;2022-09-12T15:18:22;4.93;;;2.17;;
38549;SDS011;24322;52.004;5.948;2022-09-12T15:20:51;3.72;;;2.63;;
38549;SDS011;24322;52.004;5.948;2022-09-12T15:26:02;4.70;;;2.58;;
38549;SDS011;24322;52.004;5.948;2022-09-12T15:28:29;4.97;;;2.60;;
38549;SDS011;24322;52.004;5.948;2022-09-12T15:30:55;4.18;;;2.25;;
38549;SDS011;24322;52.004;5.948;2022-09-12T15:33:22;4.93;;;2.53;;
38549;SDS011;24322;52.004;5.948;2022-09-12T15:35:49;5.80;;;2.92;;
38549;SDS011;24322;52.004;5.948;2022-09-12T15:38:16;6.60;;;2.53;;
38549;SDS011;24322;52.004;5.948;2022-09-12T15:40:42;3.60;;;2.50;;
38549;SDS011;24322;52.004;5.948;2022-09-12T15:43:11;4.47;;;2.65;;
38549;SDS011;24322;52.004;5.948;2022-09-12T15:45:37;3.53;;;1.98;;
38549;SDS011;24322;52.004;5.948;2022-09-12T15:48:05;4.50;;;2.35;;
38549;SDS011;24322;52.004;5.948;2022-09-12T15:50:31;5.70;;;3.00;;
38549;SDS011;24322;52.004;5.948;2022-09-12T15:52:57;4.38;;;2.13;;
38549;SDS011;24322;52.004;5.948;2022-09-12T15:55:24;4.55;;;2.63;;
38549;SDS011;24322;52.004;5.948;2022-09-12T15:57:53;3.97;;;2.20;;
38549;SDS011;24322;52.004;5.948;2022-09-12T16:00:19;7.35;;;2.92;;
38549;SDS011;24322;52.004;5.948;2022-09-12T16:02:46;5.28;;;2.70;;
38549;SDS011;24322;52.004;5.948;2022-09-12T16:05:14;5.40;;;2.53;;
38549;SDS011;24322;52.004;5.948;2022-09-12T16:07:42;5.32;;;2.78;;
38549;SDS011;24322;52.004;5.948;2022-09-12T16:10:12;3.70;;;2.50;;
38549;SDS011;24322;52.004;5.948;2022-09-12T16:12:43;5.97;;;3.03;;
38549;SDS011;24322;52.004;5.948;2022-09-12T16:15:15;5.32;;;2.60;;
38549;SDS011;24322;52.004;5.948;2022-09-12T16:17:45;4.80;;;2.50;;
38549;SDS011;24322;52.004;5.948;2022-09-12T16:20:12;5.78;;;3.03;;
38549;SDS011;24322;52.004;5.948;2022-09-12T16:22:38;3.42;;;2.47;;
38549;SDS011;24322;52.004;5.948;2022-09-12T16:25:04;3.60;;;2.50;;
38549;SDS011;24322;52.004;5.948;2022-09-12T16:27:30;4.72;;;2.75;;
38549;SDS011;24322;52.004;5.948;2022-09-12T16:29:56;6.35;;;2.83;;
38549;SDS011;24322;52.004;5.948;2022-09-12T16:32:22;8.38;;;2.80;;
38549;SDS011;24322;52.004;5.948;2022-09-12T16:34:48;5.15;;;2.30;;
38549;SDS011;24322;52.004;5.948;2022-09-12T16:37:14;5.53;;;3.20;;
38549;SDS011;24322;52.004;5.948;2022-09-12T16:39:40;4.25;;;2.30;;
38549;SDS011;24322;52.004;5.948;2022-09-12T16:42:06;5.05;;;2.63;;
38549;SDS011;24322;52.004;5.948;2022-09-12T16:44:32;3.80;;;2.42;;
38549;SDS011;24322;52.004;5.948;2022-09-12T16:46:57;7.45;;;3.25;;
38549;SDS011;24322;52.004;5.948;2022-09-12T16:49:23;6.50;;;2.50;;
38549;SDS011;24322;52.004;5.948;2022-09-12T16:51:49;4.20;;;2.25;;
38549;SDS011;24322;52.004;5.948;2022-09-12T16:54:14;5.97;;;3.20;;
38549;SDS011;24322;52.004;5.948;2022-09-12T16:56:41;4.45;;;2.60;;
38549;SDS011;24322;52.004;5.948;2022-09-12T16:59:07;4.57;;;3.13;;
38549;SDS011;24322;52.004;5.948;2022-09-12T17:01:36;8.52;;;2.65;;
38549;SDS011;24322;52.004;5.948;2022-09-12T17:04:02;4.20;;;2.92;;
38549;SDS011;24322;52.004;5.948;2022-09-12T17:06:28;3.58;;;2.30;;
38549;SDS011;24322;52.004;5.948;2022-09-12T17:08:57;3.90;;;2.72;;
38549;SDS011;24322;52.004;5.948;2022-09-12T17:11:29;4.20;;;2.55;;
38549;SDS011;24322;52.004;5.948;2022-09-12T17:13:57;6.20;;;2.75;;
38549;SDS011;24322;52.004;5.948;2022-09-12T17:16:24;5.57;;;2.50;;
38549;SDS011;24322;52.004;5.948;2022-09-12T17:18:51;3.85;;;2.28;;
38549;SDS011;24322;52.004;5.948;2022-09-12T17:21:17;5.15;;;2.50;;
38549;SDS011;24322;52.004;5.948;2022-09-12T17:23:43;6.43;;;2.72;;
38549;SDS011;24322;52.004;5.948;2022-09-12T17:26:10;5.45;;;2.60;;